Moses Lake, Washington
Current Conditions -  °F | °C
As of 5:52 AM on Tuesday 27 Jan 2015 (Local Time) from KMWH Reporting Station
Moderate Fog Moderate Fog  
Wind Chill: 34°   Ceiling: 200
Heat Index: 34°   Visibility: 0.25mi
Dew Point: 33°   Wind: 0mph
Humidity: 96%   Direction: NA
Pressure: 30.01"   Gusts: NA
Location:  47.13°N, 119.27°W
Report Text: KMWH 271352Z 00000KT 1/4SM R32R/1400V2000FT FG VV002 01/01 A3001 RMK AO2 SLP173 T00110006
Loading
Personal Weather Stations






























Interactive Weather Map New forecast layout! Learn more

10-Day Weather Forecast

Advertisements
Track Severe Weather on mobile